Time;durP1;ratioP1;P1;durP2;ratioP2;P2;SDS_P1;SDS_P2;PMS_P1;PMS_P2;Temp;Humidity;BMP_temperature;BMP_pressure;BME280_temperature;BME280_humidity;BME280_pressure;Samples;Min_cycle;Max_cycle;Signal;HPM_P1;HPM_P2
2021/05/24 00:01:30;;;;;;;3.77;3.30;;;12.80;99.90;;;;;;5033772;28;20243;-79
2021/05/24 00:03:56;;;;;;;6.45;4.15;;;12.90;99.90;;;;;;5017139;28;20276;-80
2021/05/24 00:06:23;;;;;;;4.82;4.22;;;12.90;99.90;;;;;;5035864;28;20170;-80
2021/05/24 00:08:48;;;;;;;6.28;4.55;;;13.00;99.90;;;;;;5034471;28;20640;-80
2021/05/24 00:11:16;;;;;;;5.10;4.60;;;13.00;99.90;;;;;;5034971;28;20193;-79
2021/05/24 00:13:53;;;;;;;6.18;4.95;;;13.00;99.90;;;;;;5034736;28;20172;-80
2021/05/24 00:16:18;;;;;;;7.07;5.20;;;13.00;99.90;;;;;;5018285;28;20185;-80
2021/05/24 00:18:50;;;;;;;5.03;4.53;;;12.90;99.90;;;;;;5035158;28;20224;-80
2021/05/24 00:21:15;;;;;;;6.80;4.57;;;12.80;99.90;;;;;;5034800;28;20192;-80
2021/05/24 00:23:41;;;;;;;7.37;5.50;;;12.80;99.90;;;;;;5033264;28;20174;-80
2021/05/24 00:26:09;;;;;;;4.73;4.20;;;12.70;99.90;;;;;;5033402;28;20689;-79
2021/05/24 00:28:38;;;;;;;4.75;4.22;;;12.80;99.90;;;;;;5017146;28;20169;-79
2021/05/24 00:31:04;;;;;;;14.38;5.43;;;12.80;99.90;;;;;;5037921;28;20281;-80
2021/05/24 00:33:29;;;;;;;4.20;3.80;;;12.80;99.90;;;;;;5037931;28;20201;-79
2021/05/24 00:35:55;;;;;;;4.10;3.30;;;12.70;99.90;;;;;;5038773;28;20174;-80
2021/05/24 00:38:20;;;;;;;6.27;5.10;;;12.70;99.90;;;;;;5034327;28;20270;-81
2021/05/24 00:40:46;;;;;;;4.30;3.70;;;12.70;99.90;;;;;;5001571;28;20212;-80
2021/05/24 00:43:12;;;;;;;4.80;3.67;;;12.70;99.90;;;;;;5036931;28;20174;-80
2021/05/24 00:45:39;;;;;;;4.15;3.70;;;12.70;99.90;;;;;;5036261;28;20185;-80
2021/05/24 00:48:05;;;;;;;5.15;3.95;;;12.70;99.90;;;;;;5036057;28;20174;-80
2021/05/24 00:50:32;;;;;;;5.68;3.90;;;12.70;99.90;;;;;;5035621;28;20193;-81
2021/05/24 00:52:57;;;;;;;4.68;3.88;;;12.60;99.90;;;;;;5035631;28;20213;-80
2021/05/24 00:55:26;;;;;;;4.13;3.40;;;12.60;99.90;;;;;;5019294;28;20231;-80
2021/05/24 00:57:52;;;;;;;4.80;3.17;;;12.50;99.90;;;;;;5036049;28;20403;-81
2021/05/24 01:00:25;;;;;;;5.13;3.90;;;12.40;99.90;;;;;;5035777;28;20177;-80
2021/05/24 01:02:52;;;;;;;3.85;3.55;;;12.50;99.90;;;;;;5037111;28;20213;-80
2021/05/24 01:05:17;;;;;;;4.88;3.55;;;12.40;99.90;;;;;;5035958;28;20173;-81
2021/05/24 01:07:43;;;;;;;4.67;3.50;;;12.50;99.90;;;;;;5036200;28;20180;-79
2021/05/24 01:10:09;;;;;;;5.87;4.17;;;12.40;99.90;;;;;;5035927;28;20201;-80
2021/05/24 01:12:34;;;;;;;5.28;3.88;;;12.40;99.90;;;;;;5034916;28;20276;-80
2021/05/24 01:15:00;;;;;;;4.13;3.57;;;12.40;99.90;;;;;;5035301;28;20204;-80
2021/05/24 01:17:26;;;;;;;4.83;4.07;;;12.30;99.90;;;;;;5036579;28;20383;-79
2021/05/24 01:19:51;;;;;;;6.13;3.20;;;12.30;99.90;;;;;;5037220;28;20189;-80
2021/05/24 01:22:21;;;;;;;11.23;4.33;;;12.30;99.90;;;;;;5036079;28;20208;-79
2021/05/24 01:24:48;;;;;;;4.28;3.85;;;12.30;99.90;;;;;;5036077;28;20188;-80
2021/05/24 01:27:14;;;;;;;3.70;2.80;;;12.30;99.90;;;;;;5035369;28;20201;-80
2021/05/24 01:29:40;;;;;;;4.63;3.90;;;12.30;99.90;;;;;;5036054;28;20192;-79
2021/05/24 01:32:07;;;;;;;4.18;3.72;;;12.30;99.90;;;;;;5033734;28;20791;-81
2021/05/24 01:34:33;;;;;;;5.15;3.65;;;12.30;99.90;;;;;;5035606;28;20192;-80
2021/05/24 01:37:00;;;;;;;3.97;3.00;;;12.30;99.90;;;;;;5036469;28;20261;-81
2021/05/24 01:39:26;;;;;;;5.50;3.70;;;12.20;99.90;;;;;;5035146;28;20177;-80
2021/05/24 01:41:52;;;;;;;5.17;4.13;;;12.20;99.90;;;;;;5034133;28;20205;-80
2021/05/24 01:44:38;;;;;;;4.15;3.75;;;12.20;99.90;;;;;;5036132;28;20177;-80
2021/05/24 01:47:05;;;;;;;5.68;3.67;;;12.20;99.90;;;;;;5035937;28;20178;-81
2021/05/24 01:49:32;;;;;;;6.30;3.80;;;12.10;99.90;;;;;;5036145;28;20655;-80
2021/05/24 01:51:57;;;;;;;4.75;3.67;;;12.20;99.90;;;;;;5036296;28;20189;-82
2021/05/24 01:54:23;;;;;;;3.50;3.17;;;12.20;99.90;;;;;;5035860;28;20176;-81
2021/05/24 01:56:49;;;;;;;5.70;3.93;;;12.20;99.90;;;;;;5036548;28;20256;-80
2021/05/24 01:59:15;;;;;;;5.37;3.77;;;12.20;99.90;;;;;;5019805;28;20446;-81
2021/05/24 02:01:41;;;;;;;6.13;3.50;;;12.20;99.90;;;;;;5035470;28;20189;-81
2021/05/24 02:04:06;;;;;;;6.18;3.53;;;12.10;99.90;;;;;;5045500;28;20729;-81
2021/05/24 02:06:32;;;;;;;4.00;3.57;;;12.10;99.90;;;;;;5020572;28;20177;-81
2021/05/24 02:08:58;;;;;;;5.03;3.57;;;12.00;99.90;;;;;;5037573;28;20173;-81
2021/05/24 02:11:25;;;;;;;3.50;3.20;;;12.00;99.90;;;;;;5038416;28;20496;-81
2021/05/24 02:13:51;;;;;;;4.18;3.20;;;12.00;99.90;;;;;;5038723;28;20621;-82
2021/05/24 02:16:26;;;;;;;4.60;3.35;;;12.00;99.90;;;;;;5020951;28;20269;-81
2021/05/24 02:18:52;;;;;;;4.60;3.60;;;12.00;99.90;;;;;;5038557;28;20161;-83
2021/05/24 02:21:18;;;;;;;4.90;3.60;;;12.00;99.90;;;;;;5038105;28;20600;-81
2021/05/24 02:23:43;;;;;;;3.60;3.30;;;12.00;99.90;;;;;;5019679;28;20174;-80
2021/05/24 02:26:09;;;;;;;4.23;3.47;;;12.00;99.90;;;;;;5004797;28;20182;-81
2021/05/24 02:28:34;;;;;;;4.30;3.90;;;12.10;99.90;;;;;;5021870;28;20198;-81
2021/05/24 02:31:02;;;;;;;4.80;3.90;;;12.00;99.90;;;;;;5037245;28;20288;-82
2021/05/24 02:33:28;;;;;;;3.70;3.30;;;12.00;99.90;;;;;;5035461;28;20288;-82
2021/05/24 02:35:58;;;;;;;5.20;4.07;;;12.00;99.90;;;;;;5035581;28;20196;-81
2021/05/24 02:38:24;;;;;;;5.00;3.50;;;11.90;99.90;;;;;;5019128;28;20187;-80
2021/05/24 02:40:49;;;;;;;5.00;4.17;;;11.90;99.90;;;;;;5034180;28;20261;-81
2021/05/24 02:43:15;;;;;;;6.50;4.33;;;11.90;99.90;;;;;;5034840;28;20185;-81
2021/05/24 02:45:40;;;;;;;3.77;3.30;;;11.90;99.90;;;;;;5034289;28;20196;-81
2021/05/24 02:48:06;;;;;;;3.90;3.20;;;11.90;99.90;;;;;;5035911;28;20185;-82
2021/05/24 02:50:33;;;;;;;6.20;3.50;;;12.00;99.90;;;;;;5035674;28;20193;-82
2021/05/24 02:52:59;;;;;;;4.13;3.20;;;11.90;99.90;;;;;;5032700;28;20948;-80
2021/05/24 02:55:24;;;;;;;4.03;3.57;;;11.90;99.90;;;;;;5033987;28;20357;-82
2021/05/24 02:57:50;;;;;;;3.40;3.00;;;11.80;99.90;;;;;;5017829;28;20232;-81
2021/05/24 03:00:16;;;;;;;4.70;3.67;;;11.90;99.90;;;;;;5033978;28;20424;-82
2021/05/24 03:02:46;;;;;;;4.43;3.55;;;11.90;99.90;;;;;;5038951;28;20205;-81
2021/05/24 03:05:21;;;;;;;4.20;3.65;;;11.90;99.90;;;;;;5040901;28;20564;-81
2021/05/24 03:07:47;;;;;;;5.38;3.50;;;11.90;99.90;;;;;;5039545;28;20244;-81
2021/05/24 03:10:15;;;;;;;4.10;3.15;;;11.80;99.90;;;;;;5038907;28;20197;-80
2021/05/24 03:12:40;;;;;;;5.00;4.45;;;11.80;99.90;;;;;;5039570;28;20537;-81
2021/05/24 03:15:09;;;;;;;6.30;3.90;;;11.80;99.90;;;;;;5039737;28;20188;-82
2021/05/24 03:17:35;;;;;;;3.70;3.33;;;11.80;99.90;;;;;;5042273;28;20169;-80
2021/05/24 03:20:00;;;;;;;4.43;3.50;;;11.70;99.90;;;;;;5041719;28;20188;-81
2021/05/24 03:22:26;;;;;;;4.73;3.90;;;11.70;99.90;;;;;;5037783;28;20216;-82
2021/05/24 03:24:51;;;;;;;4.60;4.20;;;11.70;99.90;;;;;;5038146;28;20320;-82
2021/05/24 03:27:17;;;;;;;5.00;4.27;;;11.70;99.90;;;;;;5039425;28;20425;-81
2021/05/24 03:29:42;;;;;;;4.97;3.90;;;11.70;99.90;;;;;;5039487;28;20209;-82
2021/05/24 03:32:08;;;;;;;4.10;3.70;;;11.80;99.90;;;;;;5037717;28;20538;-81
2021/05/24 03:34:34;;;;;;;5.20;4.20;;;11.70;99.90;;;;;;5038255;28;20599;-81
2021/05/24 03:36:59;;;;;;;4.80;4.17;;;11.70;99.90;;;;;;5039488;28;20216;-81
2021/05/24 03:39:25;;;;;;;4.67;4.00;;;11.70;99.90;;;;;;5038625;28;20177;-81
2021/05/24 03:41:51;;;;;;;3.70;3.40;;;11.70;99.90;;;;;;5037461;28;20223;-80
2021/05/24 03:44:16;;;;;;;5.43;3.97;;;11.70;99.90;;;;;;5021497;28;20220;-81
2021/05/24 03:46:42;;;;;;;4.07;3.43;;;11.80;99.90;;;;;;5038079;28;20272;-82
2021/05/24 03:49:08;;;;;;;5.03;4.13;;;11.70;99.90;;;;;;5038702;28;20596;-82
2021/05/24 03:51:33;;;;;;;6.10;5.33;;;11.80;99.90;;;;;;5038100;28;20428;-81
2021/05/24 03:53:59;;;;;;;4.97;4.13;;;11.80;99.90;;;;;;5039557;28;20656;-81
2021/05/24 03:56:25;;;;;;;7.37;4.40;;;11.70;99.90;;;;;;5039884;28;20253;-80
2021/05/24 03:58:51;;;;;;;4.93;3.80;;;11.70;99.90;;;;;;5037368;28;21025;-81
2021/05/24 04:01:16;;;;;;;5.53;3.93;;;11.80;99.90;;;;;;5020896;28;20303;-82
2021/05/24 04:03:43;;;;;;;4.70;4.27;;;11.80;99.90;;;;;;5036923;28;20427;-81
2021/05/24 04:06:11;;;;;;;5.10;3.95;;;11.80;99.90;;;;;;5042500;28;20253;-81
2021/05/24 04:08:40;;;;;;;5.30;3.67;;;11.90;99.90;;;;;;5044481;28;20191;-81
2021/05/24 04:11:06;;;;;;;5.60;4.25;;;11.90;99.90;;;;;;5041812;28;20292;-81
2021/05/24 04:13:32;;;;;;;5.57;3.60;;;11.90;99.90;;;;;;5043250;28;20181;-81
2021/05/24 04:15:58;;;;;;;4.53;3.67;;;11.90;99.90;;;;;;5042822;28;20233;-81
2021/05/24 04:18:30;;;;;;;4.25;3.85;;;11.90;99.90;;;;;;5042379;28;20447;-81
2021/05/24 04:21:01;;;;;;;5.70;3.95;;;12.00;99.90;;;;;;5043265;28;20205;-82
2021/05/24 04:23:27;;;;;;;5.30;4.03;;;12.00;99.90;;;;;;5048044;28;20169;-82
2021/05/24 04:25:53;;;;;;;4.90;3.60;;;12.00;99.90;;;;;;5048968;28;20215;-81
2021/05/24 04:28:18;;;;;;;5.77;3.90;;;12.00;99.90;;;;;;5031326;28;20181;-81
2021/05/24 04:30:45;;;;;;;4.70;3.83;;;12.00;99.90;;;;;;5042748;28;20585;-82
2021/05/24 04:33:12;;;;;;;4.10;3.03;;;11.90;99.90;;;;;;5042164;28;20192;-82
2021/05/24 04:35:37;;;;;;;6.82;3.42;;;11.90;99.90;;;;;;5042166;28;20264;-82
2021/05/24 04:38:04;;;;;;;11.23;3.83;;;12.00;99.90;;;;;;5025958;28;20645;-82
2021/05/24 04:40:30;;;;;;;4.18;3.78;;;12.00;99.90;;;;;;5025392;28;20245;-82
2021/05/24 04:42:57;;;;;;;4.88;3.80;;;12.10;99.90;;;;;;5041600;28;20205;-81
2021/05/24 04:45:23;;;;;;;5.90;4.43;;;12.20;99.90;;;;;;5042284;28;20181;-81
2021/05/24 04:47:49;;;;;;;4.30;3.37;;;12.20;99.90;;;;;;5041696;28;20177;-82
2021/05/24 04:50:15;;;;;;;5.60;4.17;;;12.30;99.90;;;;;;5041757;28;20467;-82
2021/05/24 04:52:40;;;;;;;4.20;3.80;;;12.30;99.90;;;;;;5042729;28;20428;-82
2021/05/24 04:55:07;;;;;;;3.53;3.13;;;12.40;99.90;;;;;;5042645;28;20684;-83
2021/05/24 04:57:35;;;;;;;3.92;3.38;;;12.50;99.90;;;;;;5042900;28;20723;-80
2021/05/24 05:00:04;;;;;;;5.07;3.50;;;12.60;99.90;;;;;;5041526;28;20181;-81
2021/05/24 05:02:29;;;;;;;3.38;3.08;;;12.60;99.90;;;;;;5040993;28;20197;-81
2021/05/24 05:04:56;;;;;;;5.77;2.90;;;12.70;99.90;;;;;;5041700;28;20274;-81
2021/05/24 05:07:24;;;;;;;3.83;3.30;;;12.90;99.90;;;;;;5042119;28;20196;-81
2021/05/24 05:09:50;;;;;;;4.05;3.38;;;13.10;99.90;;;;;;5041246;28;20225;-82
2021/05/24 05:12:16;;;;;;;5.00;3.67;;;13.10;99.90;;;;;;5041708;28;20247;-82
2021/05/24 05:14:41;;;;;;;3.67;3.37;;;13.30;99.90;;;;;;5042377;28;20192;-81
2021/05/24 05:17:08;;;;;;;4.67;3.10;;;13.40;99.90;;;;;;5039425;28;20184;-82
2021/05/24 05:19:33;;;;;;;3.30;2.75;;;13.60;99.90;;;;;;5041219;28;20177;-80
2021/05/24 05:21:59;;;;;;;3.40;3.10;;;13.70;99.90;;;;;;5041048;28;20193;-81
2021/05/24 05:24:25;;;;;;;3.17;2.90;;;14.00;99.90;;;;;;5039875;28;20205;-81
2021/05/24 05:26:50;;;;;;;3.30;2.97;;;14.40;99.90;;;;;;5023877;28;20219;-81
2021/05/24 05:29:18;;;;;;;2.67;2.20;;;14.70;99.90;;;;;;5039567;28;20684;-82
2021/05/24 05:31:44;;;;;;;2.50;2.30;;;15.00;99.90;;;;;;5022521;28;20204;-81
2021/05/24 05:34:09;;;;;;;3.40;2.60;;;15.20;99.90;;;;;;5041418;28;20182;-81
2021/05/24 05:36:36;;;;;;;3.07;2.20;;;15.50;99.90;;;;;;5039205;28;20186;-81
2021/05/24 05:39:06;;;;;;;5.47;2.28;;;15.70;99.90;;;;;;5039106;28;20212;-81
2021/05/24 05:41:31;;;;;;;3.60;2.13;;;15.90;99.90;;;;;;5023268;28;20273;-81
2021/05/24 05:43:57;;;;;;;3.07;1.90;;;16.10;99.90;;;;;;5040536;28;20412;-81
2021/05/24 05:46:22;;;;;;;13.47;2.33;;;16.20;99.90;;;;;;5039575;28;20552;-81
2021/05/24 05:48:48;;;;;;;4.10;2.33;;;16.50;99.90;;;;;;5040141;28;20181;-82
2021/05/24 05:51:14;;;;;;;2.60;2.40;;;16.60;99.90;;;;;;5039118;28;20208;-80
2021/05/24 05:53:40;;;;;;;2.27;2.07;;;16.70;99.90;;;;;;5023022;28;20676;-82
2021/05/24 05:56:05;;;;;;;2.50;1.90;;;16.80;99.90;;;;;;5040067;28;20242;-81
2021/05/24 05:58:31;;;;;;;3.00;2.70;;;17.00;99.90;;;;;;5039532;28;20491;-81
2021/05/24 06:01:01;;;;;;;2.20;2.00;;;17.00;99.90;;;;;;5038042;28;20180;-81
2021/05/24 06:03:27;;;;;;;2.70;2.23;;;17.30;99.90;;;;;;5039025;28;20169;-81
2021/05/24 06:05:52;;;;;;;7.10;2.60;;;17.30;99.90;;;;;;5037391;28;20416;-80
2021/05/24 06:08:18;;;;;;;3.00;2.20;;;17.40;99.90;;;;;;5037650;28;20226;-82
2021/05/24 06:10:43;;;;;;;2.70;2.50;;;17.50;99.90;;;;;;5022635;28;20271;-80
2021/05/24 06:13:09;;;;;;;2.60;2.40;;;17.50;99.90;;;;;;5006645;28;20214;-82
2021/05/24 06:15:34;;;;;;;3.57;2.20;;;17.50;99.90;;;;;;5040521;28;20181;-81
2021/05/24 06:18:00;;;;;;;2.87;2.60;;;17.40;99.90;;;;;;5007199;28;20179;-80
2021/05/24 06:20:26;;;;;;;4.43;2.10;;;17.40;99.90;;;;;;5023462;28;20278;-82
2021/05/24 06:22:51;;;;;;;2.20;2.00;;;17.40;99.90;;;;;;5039376;28;20193;-83
2021/05/24 06:25:17;;;;;;;2.30;2.10;;;17.70;99.90;;;;;;5006947;28;20433;-80
2021/05/24 06:27:43;;;;;;;2.20;2.00;;;17.80;99.90;;;;;;5040352;28;20169;-80
2021/05/24 06:30:10;;;;;;;5.70;2.53;;;18.00;99.90;;;;;;5038634;28;20614;-81
2021/05/24 06:32:36;;;;;;;4.40;1.93;;;18.10;99.90;;;;;;5039142;28;20569;-82
2021/05/24 06:35:03;;;;;;;2.00;1.80;;;18.10;99.90;;;;;;5038831;28;20439;-82
2021/05/24 06:37:29;;;;;;;2.93;2.40;;;18.40;99.90;;;;;;5039049;28;20411;-82
2021/05/24 06:39:54;;;;;;;2.60;2.10;;;18.50;99.90;;;;;;5039612;28;20433;-81
2021/05/24 06:42:20;;;;;;;2.60;2.40;;;18.80;99.90;;;;;;5021201;28;20741;-81
2021/05/24 06:44:46;;;;;;;2.37;2.17;;;18.90;99.90;;;;;;5039454;28;20177;-82
2021/05/24 06:47:12;;;;;;;2.47;2.27;;;18.90;99.90;;;;;;5021486;28;20423;-81
2021/05/24 06:49:37;;;;;;;2.40;2.20;;;18.90;99.90;;;;;;5053435;28;20201;-82
2021/05/24 06:52:04;;;;;;;2.10;1.53;;;18.90;99.90;;;;;;5035120;28;20287;-82
2021/05/24 06:54:36;;;;;;;4.37;2.40;;;19.20;99.90;;;;;;5019891;28;20224;-82
2021/05/24 06:57:06;;;;;;;5.53;1.83;;;19.30;99.90;;;;;;5037939;28;20411;-81
2021/05/24 06:59:31;;;;;;;1.67;1.57;;;19.40;99.90;;;;;;5035376;28;20438;-82
2021/05/24 07:02:05;;;;;;;1.90;1.50;;;19.60;99.90;;;;;;5036044;28;20497;-81
2021/05/24 07:04:33;;;;;;;2.03;1.83;;;19.70;99.90;;;;;;5022588;28;20573;-81
2021/05/24 07:06:59;;;;;;;3.53;2.43;;;19.50;99.90;;;;;;5022964;28;20495;-81
2021/05/24 07:09:28;;;;;;;8.07;3.20;;;19.60;99.90;;;;;;5006591;28;20534;-81
2021/05/24 07:11:56;;;;;;;4.17;2.87;;;19.60;99.90;;;;;;5038150;28;20200;-82
2021/05/24 07:14:22;;;;;;;3.27;2.20;;;19.60;99.90;;;;;;5035882;28;20413;-81
2021/05/24 07:16:50;;;;;;;2.20;1.90;;;19.80;99.90;;;;;;5019629;28;20416;-81
2021/05/24 07:19:16;;;;;;;1.60;1.50;;;20.00;99.90;;;;;;5035861;28;20483;-81
2021/05/24 07:21:41;;;;;;;1.87;1.77;;;19.90;99.90;;;;;;5002069;28;20444;-81
2021/05/24 07:24:08;;;;;;;4.00;1.93;;;19.70;99.90;;;;;;5036937;28;20547;-81
2021/05/24 07:26:36;;;;;;;2.57;1.87;;;19.60;99.90;;;;;;5039324;28;20189;-81
2021/05/24 07:29:02;;;;;;;2.80;2.20;;;19.50;99.90;;;;;;5037931;28;20432;-81
2021/05/24 07:31:28;;;;;;;3.30;2.60;;;19.60;99.90;;;;;;5039751;28;20530;-81
2021/05/24 07:33:54;;;;;;;4.03;2.50;;;19.70;99.90;;;;;;5035569;28;20444;-81
2021/05/24 07:36:19;;;;;;;1.87;1.77;;;19.70;99.90;;;;;;5039181;28;20652;-81
2021/05/24 07:38:45;;;;;;;3.67;1.83;;;19.70;99.90;;;;;;5037279;28;20223;-82
2021/05/24 07:41:16;;;;;;;3.23;1.47;;;19.60;99.90;;;;;;5040203;28;20209;-81
2021/05/24 07:43:42;;;;;;;2.63;1.20;;;19.50;99.90;;;;;;5040476;28;20212;-82
2021/05/24 07:46:09;;;;;;;2.50;2.03;;;19.60;99.90;;;;;;5041474;28;20420;-80
2021/05/24 07:48:37;;;;;;;2.30;1.83;;;19.60;99.90;;;;;;5040310;28;20435;-81
2021/05/24 07:51:03;;;;;;;4.17;1.73;;;19.60;99.90;;;;;;5040699;28;20808;-81
2021/05/24 07:53:29;;;;;;;1.97;1.20;;;19.70;99.90;;;;;;5025442;28;20451;-81
2021/05/24 07:55:55;;;;;;;1.60;1.40;;;19.70;99.30;;;;;;5040538;28;20783;-81
2021/05/24 07:58:21;;;;;;;2.43;1.50;;;19.70;98.30;;;;;;5040969;28;20432;-81
2021/05/24 08:00:47;;;;;;;2.30;1.73;;;19.70;97.20;;;;;;5042748;28;20173;-81
2021/05/24 08:03:12;;;;;;;1.87;1.40;;;19.60;97.60;;;;;;5039201;28;20588;-82
2021/05/24 08:05:38;;;;;;;2.40;1.40;;;19.60;96.80;;;;;;5038614;28;20524;-83
2021/05/24 08:08:05;;;;;;;1.60;1.10;;;19.70;97.70;;;;;;5038290;28;20169;-82
2021/05/24 08:10:31;;;;;;;2.10;1.30;;;19.60;96.60;;;;;;5040220;28;20451;-81
2021/05/24 08:13:00;;;;;;;2.00;1.50;;;19.70;96.90;;;;;;5038178;28;20464;-82
2021/05/24 08:15:30;;;;;;;2.00;1.20;;;19.70;96.00;;;;;;5040575;28;20503;-81
2021/05/24 08:18:09;;;;;;;2.50;1.47;;;19.70;96.50;;;;;;5009117;28;20432;-80
2021/05/24 08:20:44;;;;;;;1.50;1.27;;;19.80;95.70;;;;;;5024177;28;20428;-82
2021/05/24 08:23:19;;;;;;;5.40;1.37;;;19.80;95.50;;;;;;5040602;28;20419;-83
2021/05/24 08:25:57;;;;;;;;;;;;;;;;;;;;;
2021/05/24 08:28:26;;;;;;;1.53;1.30;;;19.80;95.10;;;;;;5040566;28;20888;-82
2021/05/24 08:30:55;;;;;;;1.57;1.37;;;19.60;95.10;;;;;;5038964;28;20474;-82
2021/05/24 08:33:22;;;;;;;2.10;1.90;;;19.60;94.80;;;;;;5039776;28;20464;-80
2021/05/24 08:35:48;;;;;;;1.70;1.60;;;19.70;95.10;;;;;;5040041;28;20947;-81
2021/05/24 08:38:14;;;;;;;2.10;1.50;;;19.70;95.20;;;;;;5024678;28;20416;-81
2021/05/24 08:40:41;;;;;;;1.90;1.70;;;19.60;95.60;;;;;;5025111;28;20416;-82
2021/05/24 08:43:07;;;;;;;2.17;1.33;;;19.60;95.30;;;;;;5043028;28;20173;-81
2021/05/24 08:45:39;;;;;;;2.30;1.13;;;19.70;92.10;;;;;;5043968;28;20436;-81
2021/05/24 08:48:06;;;;;;;1.43;0.90;;;19.60;90.60;;;;;;5043344;28;20170;-81
2021/05/24 08:50:32;;;;;;;1.93;1.10;;;19.70;90.00;;;;;;5042889;28;20452;-82
2021/05/24 08:52:57;;;;;;;4.27;1.20;;;19.80;90.00;;;;;;5039268;28;20442;-82
2021/05/24 08:55:26;;;;;;;3.20;1.13;;;20.10;90.30;;;;;;5040051;28;20412;-83
2021/05/24 08:57:58;;;;;;;1.10;0.90;;;20.10;87.90;;;;;;5039342;28;20187;-82
2021/05/24 09:00:23;;;;;;;1.10;1.00;;;20.10;85.60;;;;;;5039739;28;20926;-82
2021/05/24 09:02:54;;;;;;;2.03;1.10;;;20.00;83.20;;;;;;5039428;28;20441;-83
2021/05/24 09:05:20;;;;;;;1.40;1.00;;;20.00;83.70;;;;;;5039283;28;20205;-82
2021/05/24 09:08:04;;;;;;;1.40;1.10;;;19.90;82.80;;;;;;5040363;28;20423;-83
2021/05/24 09:10:39;;;;;;;1.77;1.30;;;19.70;84.60;;;;;;5040709;28;20453;-82
2021/05/24 09:13:12;;;;;;;5.43;1.40;;;19.60;85.80;;;;;;5024745;28;20412;-81
2021/05/24 09:15:40;;;;;;;1.50;1.00;;;19.60;87.10;;;;;;5040507;28;20807;-82
2021/05/24 09:18:07;;;;;;;1.20;0.97;;;19.60;86.30;;;;;;5041710;28;20406;-81
2021/05/24 09:20:38;;;;;;;1.20;0.93;;;19.50;86.60;;;;;;5041312;28;20410;-82
2021/05/24 09:23:20;;;;;;;1.40;1.07;;;19.40;86.80;;;;;;5040073;28;20416;-82
2021/05/24 09:25:48;;;;;;;1.70;1.00;;;19.20;83.80;;;;;;5041732;28;20412;-82
2021/05/24 09:28:40;;;;;;;2.30;1.07;;;19.30;85.60;;;;;;5041739;28;20487;-82
2021/05/24 09:31:10;;;;;;;2.50;1.10;;;19.30;84.60;;;;;;5041019;28;20482;-81
2021/05/24 09:33:38;;;;;;;1.60;1.27;;;19.40;83.80;;;;;;5042211;28;20405;-81
2021/05/24 09:36:04;;;;;;;2.77;1.33;;;19.70;83.10;;;;;;5040231;28;20420;-82
2021/05/24 09:38:49;;;;;;;2.43;1.13;;;19.80;84.50;;;;;;5040877;28;20420;-81
2021/05/24 09:41:19;;;;;;;2.03;1.17;;;19.80;82.40;;;;;;5038720;28;20513;-82
2021/05/24 09:43:46;;;;;;;1.70;1.30;;;19.80;82.90;;;;;;5040340;28;20409;-81
2021/05/24 09:46:13;;;;;;;2.43;1.07;;;19.70;82.80;;;;;;5040729;28;20411;-82
2021/05/24 09:48:40;;;;;;;1.83;1.33;;;19.80;81.40;;;;;;5038695;28;20417;-81
2021/05/24 09:51:08;;;;;;;1.30;0.90;;;19.90;83.00;;;;;;5038725;28;20464;-82
2021/05/24 09:53:34;;;;;;;1.20;0.90;;;20.00;81.40;;;;;;5042107;28;20407;-82
2021/05/24 09:56:14;;;;;;;2.40;1.27;;;19.80;79.60;;;;;;5040024;28;20445;-82
2021/05/24 09:58:40;;;;;;;2.50;0.70;;;20.00;81.60;;;;;;5040398;28;20776;-82
2021/05/24 10:01:22;;;;;;;1.60;1.20;;;20.10;80.70;;;;;;5040164;28;20438;-81
2021/05/24 10:03:56;;;;;;;1.20;0.90;;;20.20;81.50;;;;;;5039854;28;20187;-81
2021/05/24 10:06:22;;;;;;;1.20;1.00;;;20.40;76.90;;;;;;5041890;28;20399;-81
2021/05/24 10:08:48;;;;;;;1.90;1.10;;;20.40;75.80;;;;;;5022904;28;20473;-81
2021/05/24 10:11:14;;;;;;;1.00;0.70;;;20.40;76.60;;;;;;5021768;28;20215;-81
2021/05/24 10:13:42;;;;;;;1.87;0.90;;;20.50;74.30;;;;;;5023404;28;20206;-82
2021/05/24 10:16:11;;;;;;;1.60;1.00;;;20.60;73.60;;;;;;5038593;28;20180;-82
2021/05/24 10:18:40;;;;;;;1.20;1.00;;;20.60;71.20;;;;;;5037699;28;20454;-82
2021/05/24 10:21:06;;;;;;;1.63;0.80;;;20.40;71.10;;;;;;5037438;28;20474;-81
2021/05/24 10:23:32;;;;;;;1.23;1.10;;;20.40;71.60;;;;;;5037534;28;20431;-81
2021/05/24 10:26:00;;;;;;;2.83;1.50;;;20.30;71.40;;;;;;5037295;28;20415;-81
2021/05/24 10:28:27;;;;;;;1.10;0.90;;;20.30;71.80;;;;;;5023487;28;20184;-80
2021/05/24 10:30:55;;;;;;;2.20;1.30;;;20.30;71.80;;;;;;5041036;28;20538;-82
2021/05/24 10:33:25;;;;;;;2.33;1.93;;;20.20;71.60;;;;;;5041153;28;20460;-82
2021/05/24 10:35:52;;;;;;;1.93;1.13;;;20.20;68.60;;;;;;5038697;28;20435;-82
2021/05/24 10:38:26;;;;;;;1.53;1.10;;;20.20;68.10;;;;;;5038646;28;20443;-82
2021/05/24 10:41:04;;;;;;;1.43;1.00;;;20.40;68.70;;;;;;5038329;28;20432;-82
2021/05/24 10:43:46;;;;;;;2.20;0.90;;;20.40;68.80;;;;;;5037985;28;20799;-81
2021/05/24 10:46:28;;;;;;;1.47;1.07;;;20.50;63.40;;;;;;5037663;28;20480;-80
2021/05/24 10:49:17;;;;;;;1.27;0.80;;;20.50;62.20;;;;;;5039960;28;20422;-81
2021/05/24 10:51:55;;;;;;;1.30;0.93;;;20.50;64.20;;;;;;5038439;28;20477;-81
2021/05/24 10:54:20;;;;;;;1.73;0.90;;;20.60;66.50;;;;;;5038374;28;20412;-82
2021/05/24 10:56:47;;;;;;;1.10;0.83;;;20.60;64.30;;;;;;5038389;28;20403;-81
2021/05/24 10:59:41;;;;;;;2.20;0.80;;;20.40;64.70;;;;;;5038359;28;20612;-81
2021/05/24 11:02:08;;;;;;;1.30;0.80;;;20.40;65.50;;;;;;5037065;28;20500;-82
2021/05/24 11:05:04;;;;;;;1.70;0.83;;;20.40;63.50;;;;;;5038388;28;20433;-82
2021/05/24 11:07:45;;;;;;;2.03;0.80;;;20.40;61.40;;;;;;5038904;28;20471;-81
2021/05/24 11:10:14;;;;;;;1.77;1.10;;;20.40;61.00;;;;;;5036917;28;20493;-82
2021/05/24 11:12:41;;;;;;;3.30;0.83;;;20.50;62.00;;;;;;5039004;28;20465;-82
2021/05/24 11:15:10;;;;;;;1.70;1.20;;;20.60;62.40;;;;;;5050152;28;20450;-81
2021/05/24 11:17:57;;;;;;;0.90;0.70;;;20.50;64.00;;;;;;5040983;28;20418;-82
2021/05/24 11:20:42;;;;;;;1.07;0.97;;;20.60;64.60;;;;;;5039465;28;20467;-82
2021/05/24 11:25:59;;;;;;;1.40;0.83;;;20.90;66.70;;;;;;5040841;28;20411;-83
2021/05/24 11:28:37;;;;;;;1.50;1.23;;;20.90;66.20;;;;;;5038201;28;20415;-82
2021/05/24 11:31:17;;;;;;;1.60;1.20;;;20.90;66.80;;;;;;5040607;28;20467;-82
2021/05/24 11:33:49;;;;;;;1.23;1.10;;;20.90;68.80;;;;;;5036714;28;20810;-82
2021/05/24 11:36:37;;;;;;;1.93;0.93;;;20.80;65.70;;;;;;5038343;28;21083;-81
2021/05/24 11:39:07;;;;;;;1.30;1.10;;;20.80;66.60;;;;;;5038288;28;20407;-82
2021/05/24 11:41:34;;;;;;;1.33;0.90;;;21.00;66.70;;;;;;5040777;28;20570;-82
2021/05/24 11:44:03;;;;;;;1.20;0.87;;;20.90;65.10;;;;;;5040354;28;20457;-82
2021/05/24 11:46:51;;;;;;;1.50;1.10;;;20.80;66.20;;;;;;5040886;28;20415;-84
2021/05/24 11:49:19;;;;;;;1.20;0.80;;;20.80;65.30;;;;;;5040343;28;20440;-83
2021/05/24 11:51:46;;;;;;;1.00;0.80;;;20.70;63.00;;;;;;5038539;28;20438;-82
2021/05/24 11:54:19;;;;;;;1.60;1.07;;;20.70;63.50;;;;;;5040070;28;20415;-81
2021/05/24 11:56:48;;;;;;;3.20;1.20;;;20.80;64.60;;;;;;5043284;28;20408;-82
2021/05/24 11:59:19;;;;;;;2.10;1.50;;;20.80;63.60;;;;;;5045039;28;20453;-81
2021/05/24 12:01:47;;;;;;;1.07;0.83;;;20.70;61.50;;;;;;5041705;28;20468;-82
2021/05/24 12:04:17;;;;;;;1.50;1.10;;;20.60;62.10;;;;;;5041395;28;20553;-81
2021/05/24 12:06:45;;;;;;;1.50;1.00;;;20.70;61.30;;;;;;5023700;28;20422;-83
2021/05/24 12:09:12;;;;;;;1.50;1.20;;;20.80;61.80;;;;;;5040828;28;20423;-82
2021/05/24 12:11:53;;;;;;;2.17;1.50;;;20.90;62.50;;;;;;5040300;28;20462;-82
2021/05/24 12:14:19;;;;;;;1.50;1.00;;;20.90;60.40;;;;;;5039892;28;20407;-82
2021/05/24 12:16:45;;;;;;;2.00;0.90;;;21.00;60.60;;;;;;5023182;28;20942;-84
2021/05/24 12:19:10;;;;;;;2.80;1.00;;;21.00;60.60;;;;;;5040321;28;20172;-80
2021/05/24 12:21:41;;;;;;;1.20;1.10;;;20.90;60.50;;;;;;5023226;28;20592;-82
2021/05/24 12:24:10;;;;;;;1.27;0.90;;;21.00;61.50;;;;;;5039469;28;20172;-82
2021/05/24 12:26:44;;;;;;;1.37;0.83;;;21.00;62.10;;;;;;5042540;28;20423;-82
2021/05/24 12:29:09;;;;;;;3.33;0.87;;;21.10;60.30;;;;;;5042536;28;20415;-82
2021/05/24 12:31:35;;;;;;;1.13;0.77;;;21.10;59.10;;;;;;5042133;28;20463;-83
2021/05/24 12:34:02;;;;;;;2.70;1.17;;;21.10;59.60;;;;;;5026291;28;20180;-82
2021/05/24 12:36:41;;;;;;;1.40;1.00;;;21.10;59.10;;;;;;5041862;28;20415;-81
2021/05/24 12:39:07;;;;;;;2.10;1.00;;;21.00;58.60;;;;;;5042775;28;20399;-82
2021/05/24 12:41:33;;;;;;;1.10;0.80;;;20.80;59.00;;;;;;5042764;28;20453;-82
2021/05/24 12:44:02;;;;;;;1.30;0.70;;;20.70;58.00;;;;;;5042881;28;20406;-83
2021/05/24 12:46:29;;;;;;;1.20;0.70;;;20.60;57.90;;;;;;5044517;28;20412;-83
2021/05/24 12:48:57;;;;;;;1.30;0.90;;;20.70;58.70;;;;;;5042311;28;20416;-82
2021/05/24 12:51:26;;;;;;;1.63;0.80;;;20.80;59.20;;;;;;5043533;28;20478;-81
2021/05/24 12:53:54;;;;;;;1.40;1.10;;;20.80;58.10;;;;;;5042941;28;20424;-81
2021/05/24 12:56:20;;;;;;;2.23;0.77;;;20.90;57.40;;;;;;5044635;28;20462;-81